Time;durP1;ratioP1;P1;durP2;ratioP2;P2;SDS_P1;SDS_P2;PMS_P1;PMS_P2;Temp;Humidity;BMP_temperature;BMP_pressure;BME280_temperature;BME280_humidity;BME280_pressure;Samples;Min_cycle;Max_cycle;Signal;HPM_P1;HPM_P2
2022/03/23 00:00:22;;;;;;;23.65;11.88;;;;;;;1.27;54.27;95025.50;5047514;28;20053;-51
2022/03/23 00:02:49;;;;;;;26.52;12.50;;;;;;;1.26;54.23;95026.59;5048799;28;20676;-53
2022/03/23 00:05:18;;;;;;;30.70;13.30;;;;;;;1.18;54.70;95019.34;5048937;28;20049;-58
2022/03/23 00:07:45;;;;;;;30.08;13.10;;;;;;;1.17;55.17;95023.19;5047594;28;20041;-55
2022/03/23 00:10:12;;;;;;;34.35;14.60;;;;;;;1.14;55.38;95021.13;5049122;28;20051;-50
2022/03/23 00:12:42;;;;;;;29.75;13.77;;;;;;;1.00;55.60;95024.84;5048991;28;20371;-52
2022/03/23 00:15:10;;;;;;;31.10;14.18;;;;;;;1.00;55.71;95027.56;5048757;28;20041;-54
2022/03/23 00:17:37;;;;;;;28.23;13.17;;;;;;;1.03;55.56;95028.84;5048971;28;20550;-56
2022/03/23 00:20:04;;;;;;;29.13;14.23;;;;;;;1.04;55.56;95024.22;5049061;28;20048;-55
2022/03/23 00:22:31;;;;;;;30.35;14.13;;;;;;;0.97;55.53;95030.94;5048629;28;20112;-48
2022/03/23 00:24:58;;;;;;;34.90;14.55;;;;;;;0.95;55.36;95026.97;5049158;28;20041;-49
2022/03/23 00:27:25;;;;;;;45.58;16.95;;;;;;;0.93;56.23;95023.81;5048732;28;20045;-53
2022/03/23 00:29:52;;;;;;;51.23;18.37;;;;;;;0.93;55.24;95016.47;5049176;28;20041;-56
2022/03/23 00:32:18;;;;;;;46.00;16.77;;;;;;;0.95;56.01;95016.16;5049256;28;20041;-54
2022/03/23 00:34:45;;;;;;;46.90;17.35;;;;;;;0.89;56.20;95018.25;5048677;28;20049;-52
2022/03/23 00:37:12;;;;;;;37.13;15.40;;;;;;;0.91;56.14;95017.94;5049136;28;20045;-49
2022/03/23 00:39:38;;;;;;;30.50;14.40;;;;;;;0.90;56.72;95021.75;5047373;28;20641;-51
2022/03/23 00:42:06;;;;;;;29.33;13.43;;;;;;;0.83;56.54;95014.16;5047574;28;20045;-53
2022/03/23 00:44:33;;;;;;;27.52;13.68;;;;;;;0.74;56.22;95014.19;5048588;28;20040;-53
2022/03/23 00:46:59;;;;;;;30.33;14.20;;;;;;;0.59;56.75;95025.56;5048916;28;20045;-51
2022/03/23 00:49:27;;;;;;;32.53;14.30;;;;;;;0.50;57.14;95027.47;5048622;28;20065;-52
2022/03/23 00:51:56;;;;;;;36.58;16.45;;;;;;;0.41;57.35;95021.34;5049110;28;20045;-58
2022/03/23 00:54:23;;;;;;;34.43;15.00;;;;;;;0.41;57.53;95018.63;5047919;28;20049;-48
2022/03/23 00:56:51;;;;;;;32.60;14.32;;;;;;;0.45;57.77;95016.88;5047930;28;20629;-53
2022/03/23 00:59:20;;;;;;;31.48;14.60;;;;;;;0.42;57.27;95017.50;5047328;28;20049;-51
2022/03/23 01:01:48;;;;;;;44.17;16.73;;;;;;;0.34;57.55;95017.22;5048501;28;20051;-51
2022/03/23 01:04:15;;;;;;;54.97;21.35;;;;;;;0.29;58.09;95016.63;5051273;28;20057;-49
2022/03/23 01:06:42;;;;;;;44.23;17.23;;;;;;;0.30;57.85;95026.28;5050644;28;20059;-50
2022/03/23 01:09:09;;;;;;;39.08;15.40;;;;;;;0.32;58.37;95022.16;5052378;28;20118;-56
2022/03/23 01:11:37;;;;;;;33.42;14.85;;;;;;;0.22;58.39;95019.00;5051951;28;20226;-54
2022/03/23 01:14:06;;;;;;;34.60;14.00;;;;;;;0.25;57.67;95013.75;5052250;28;20041;-52
2022/03/23 01:16:33;;;;;;;34.92;14.93;;;;;;;0.22;57.73;95014.38;5052165;28;20041;-53
2022/03/23 01:19:00;;;;;;;40.67;15.13;;;;;;;0.25;58.22;95021.84;5052107;28;20045;-50
2022/03/23 01:21:28;;;;;;;37.42;14.93;;;;;;;0.21;58.12;95020.91;5051834;28;20070;-55
2022/03/23 01:23:55;;;;;;;35.72;14.38;;;;;;;0.08;58.95;95022.72;5052149;28;20045;-50
2022/03/23 01:26:22;;;;;;;31.10;13.68;;;;;;;-0.04;58.91;95022.56;5064165;28;20037;-48
2022/03/23 01:28:50;;;;;;;36.13;15.18;;;;;;;-0.07;59.40;95018.59;5050951;28;20947;-51
2022/03/23 01:31:17;;;;;;;49.80;18.10;;;;;;;-0.05;59.80;95016.38;5051776;28;20067;-50
2022/03/23 01:33:44;;;;;;;37.80;14.65;;;;;;;-0.02;59.61;95015.75;5051651;28;20053;-56
2022/03/23 01:36:11;;;;;;;32.72;14.52;;;;;;;-0.04;59.85;95014.44;5051566;28;20063;-51
2022/03/23 01:38:38;;;;;;;30.92;13.57;;;;;;;-0.08;59.52;95011.63;5050398;28;20041;-52
2022/03/23 01:41:05;;;;;;;32.47;13.68;;;;;;;-0.09;59.39;95017.34;5051915;28;20051;-47
2022/03/23 01:43:33;;;;;;;29.80;13.23;;;;;;;-0.08;59.52;95014.31;5051544;28;20045;-48
2022/03/23 01:46:01;;;;;;;27.13;12.73;;;;;;;-0.08;59.72;95008.94;5051654;28;20090;-52
2022/03/23 01:48:28;;;;;;;43.97;17.65;;;;;;;-0.06;59.43;95017.50;5051510;28;20044;-50
2022/03/23 01:50:55;;;;;;;36.50;15.07;;;;;;;-0.29;60.32;95019.56;5051908;28;20049;-50
2022/03/23 01:53:22;;;;;;;37.55;15.35;;;;;;;-0.23;59.83;95020.22;5051522;28;20523;-54
2022/03/23 01:55:49;;;;;;;29.13;13.00;;;;;;;-0.23;59.84;95021.00;5050849;28;20041;-53
2022/03/23 01:58:20;;;;;;;32.78;14.20;;;;;;;-0.24;59.79;95029.44;5051377;28;20048;-52
2022/03/23 02:00:47;;;;;;;43.03;17.88;;;;;;;-0.23;59.90;95021.00;5051026;28;20049;-48
2022/03/23 02:03:14;;;;;;;40.67;16.25;;;;;;;-0.28;60.22;95025.75;5051400;28;20045;-49
2022/03/23 02:05:41;;;;;;;28.83;13.63;;;;;;;-0.42;60.46;95018.66;5051111;28;20057;-55
2022/03/23 02:08:11;;;;;;;32.13;14.40;;;;;;;-0.48;60.31;95021.84;5051245;28;20071;-47
2022/03/23 02:10:38;;;;;;;37.60;15.95;;;;;;;-0.42;60.70;95021.34;5051045;28;20385;-49
2022/03/23 02:13:05;;;;;;;39.20;16.13;;;;;;;-0.51;60.54;95019.75;5051298;28;20059;-49
2022/03/23 02:15:32;;;;;;;36.45;14.55;;;;;;;-0.48;60.86;95016.44;5050686;28;20053;-52
2022/03/23 02:17:59;;;;;;;34.83;15.55;;;;;;;-0.44;61.21;95022.78;5051158;28;20049;-50
2022/03/23 02:20:26;;;;;;;32.50;15.00;;;;;;;-0.45;60.76;95011.19;5050681;28;20049;-47
2022/03/23 02:22:53;;;;;;;30.27;13.90;;;;;;;-0.44;60.61;95020.88;5051220;28;20138;-54
2022/03/23 02:25:25;;;;;;;49.30;18.05;;;;;;;-0.43;60.66;95008.16;5051082;28;20815;-51
2022/03/23 02:27:53;;;;;;;43.50;16.83;;;;;;;-0.39;61.08;95011.03;5048991;28;20041;-50
2022/03/23 02:30:21;;;;;;;36.70;14.77;;;;;;;-0.44;60.56;95012.00;5050743;28;20048;-51
2022/03/23 02:32:49;;;;;;;38.57;14.90;;;;;;;-0.42;60.17;95012.47;5050524;28;20052;-50
2022/03/23 02:35:16;;;;;;;36.95;15.05;;;;;;;-0.45;60.61;95010.41;5050878;28;20045;-52
2022/03/23 02:37:43;;;;;;;33.50;14.50;;;;;;;-0.46;60.37;95003.44;5065945;28;20055;-51
2022/03/23 02:40:11;;;;;;;39.83;16.08;;;;;;;-0.46;60.39;95012.31;5050791;28;20498;-51
2022/03/23 02:42:39;;;;;;;61.50;20.52;;;;;;;-0.50;60.49;95005.97;5050387;28;20516;-47
2022/03/23 02:45:07;;;;;;;36.47;14.90;;;;;;;-0.54;60.67;95006.91;5050624;28;20520;-50
2022/03/23 02:47:34;;;;;;;32.95;13.73;;;;;;;-0.57;60.48;95012.94;5049012;28;20053;-51
2022/03/23 02:50:01;;;;;;;31.98;14.07;;;;;;;-0.65;61.16;95007.22;5050648;28;20045;-56
2022/03/23 02:52:28;;;;;;;30.40;13.70;;;;;;;-0.70;61.11;95007.38;5050145;28;20068;-52
2022/03/23 03:03:32;;;;;;;26.20;12.70;;;;;;;-0.78;61.51;95002.78;5049967;28;20055;-51
2022/03/23 03:06:02;;;;;;;27.67;12.80;;;;;;;-0.79;61.58;95003.09;5050253;28;20061;-51
2022/03/23 03:08:44;;;;;;;25.42;12.30;;;;;;;-0.81;61.70;95006.09;5048252;28;20045;-50
2022/03/23 03:11:12;;;;;;;29.00;12.70;;;;;;;-0.81;61.83;94998.03;5029187;28;20053;-50
2022/03/23 03:13:40;;;;;;;25.25;11.85;;;;;;;-0.82;61.61;94999.16;5044976;28;20122;-53
2022/03/23 03:16:07;;;;;;;28.05;12.48;;;;;;;-0.82;61.77;95013.41;5030000;28;20053;-52
2022/03/23 03:18:34;;;;;;;26.92;12.48;;;;;;;-0.81;61.72;95006.09;5028570;28;20425;-56
2022/03/23 03:21:06;;;;;;;25.45;12.13;;;;;;;-0.85;61.62;95010.53;5030228;28;20059;-50
2022/03/23 03:23:34;;;;;;;24.97;11.50;;;;;;;-0.97;61.89;95005.78;5029738;28;20050;-55
2022/03/23 03:26:05;;;;;;;23.42;11.35;;;;;;;-0.99;61.89;95013.38;5030688;28;20075;-51
2022/03/23 03:28:34;;;;;;;26.08;11.98;;;;;;;-0.98;61.76;95014.19;5048490;28;20067;-49
2022/03/23 03:31:05;;;;;;;27.50;11.95;;;;;;;-0.96;62.06;95009.28;5035625;28;20059;-50
2022/03/23 03:37:13;;;;;;;25.73;10.70;;;;;;;-1.06;62.66;95018.44;5024168;28;20653;-48
2022/03/23 03:39:40;;;;;;;26.23;11.48;;;;;;;-1.04;62.87;95011.63;5028091;28;20055;-49
2022/03/23 03:42:07;;;;;;;24.80;11.40;;;;;;;-1.03;62.73;95007.03;5029339;28;20054;-54
2022/03/23 03:44:33;;;;;;;28.77;12.40;;;;;;;-1.06;62.85;95005.78;5029035;28;20045;-54
2022/03/23 03:47:00;;;;;;;26.05;12.20;;;;;;;-1.10;62.62;95004.03;5028684;28;20055;-48
2022/03/23 03:49:32;;;;;;;23.93;11.63;;;;;;;-1.14;62.99;95011.16;5028002;28;20052;-51
2022/03/23 03:51:59;;;;;;;24.42;11.68;;;;;;;-1.16;62.64;95016.84;5044986;28;20060;-55
2022/03/23 03:54:25;;;;;;;25.73;11.80;;;;;;;-1.16;62.87;95010.66;5029000;28;20052;-54
2022/03/23 03:56:52;;;;;;;24.65;11.35;;;;;;;-1.22;62.74;95015.41;5028548;28;20083;-50
2022/03/23 03:59:19;;;;;;;26.38;12.60;;;;;;;-1.21;63.29;95015.09;5027755;28;20041;-51
2022/03/23 04:01:46;;;;;;;26.20;12.03;;;;;;;-1.24;63.44;95014.94;5029013;28;20045;-54
2022/03/23 04:04:13;;;;;;;25.58;11.40;;;;;;;-1.26;63.03;95020.63;5029229;28;20056;-50
2022/03/23 04:06:39;;;;;;;24.35;12.10;;;;;;;-1.24;63.24;95023.78;5029346;28;20052;-53
2022/03/23 04:09:06;;;;;;;24.70;11.32;;;;;;;-1.29;62.89;95020.44;5049444;28;20049;-61
2022/03/23 04:11:34;;;;;;;23.35;10.90;;;;;;;-1.30;63.01;95019.66;5049070;28;20044;-50
2022/03/23 04:14:01;;;;;;;26.53;11.47;;;;;;;-1.33;63.10;95025.66;5049327;28;20056;-48
2022/03/23 04:16:28;;;;;;;26.83;11.65;;;;;;;-1.34;63.34;95021.38;5048644;28;20052;-54
2022/03/23 04:18:55;;;;;;;23.85;11.52;;;;;;;-1.32;63.39;95021.88;5047934;28;20094;-48
2022/03/23 04:21:22;;;;;;;25.98;11.90;;;;;;;-1.33;64.20;95039.13;5049433;28;20409;-56
2022/03/23 04:23:49;;;;;;;26.27;11.70;;;;;;;-1.38;63.90;95028.50;5048990;28;20048;-49
2022/03/23 04:26:15;;;;;;;24.30;11.23;;;;;;;-1.41;64.19;95034.50;5047876;28;20041;-51
2022/03/23 04:28:42;;;;;;;26.17;11.90;;;;;;;-1.44;64.47;95035.13;5048857;28;20053;-48
2022/03/23 04:31:09;;;;;;;25.70;12.88;;;;;;;-1.55;64.52;95044.59;5049312;28;20041;-55
2022/03/23 04:33:36;;;;;;;26.70;12.00;;;;;;;-1.54;64.18;95044.28;5048847;28;20052;-48
2022/03/23 04:36:03;;;;;;;27.35;12.25;;;;;;;-1.56;64.20;95049.19;5049434;28;20044;-55
2022/03/23 04:38:29;;;;;;;27.27;12.00;;;;;;;-1.69;64.45;95044.69;5048654;28;20041;-52
2022/03/23 04:40:57;;;;;;;26.70;11.73;;;;;;;-1.66;64.73;95050.25;5053182;28;20409;-50
2022/03/23 04:43:24;;;;;;;27.05;12.43;;;;;;;-1.63;64.97;95052.34;5052262;28;20049;-47
2022/03/23 04:45:51;;;;;;;26.05;11.85;;;;;;;-1.72;64.98;95053.38;5053218;28;20047;-50
2022/03/23 04:48:17;;;;;;;29.25;12.38;;;;;;;-1.71;64.69;95045.00;5052871;28;20052;-48
2022/03/23 04:50:46;;;;;;;27.53;13.03;;;;;;;-1.70;64.71;95048.50;5050961;28;20052;-50
2022/03/23 04:53:14;;;;;;;26.38;12.05;;;;;;;-1.68;64.59;95054.34;5052617;28;20105;-56
2022/03/23 04:55:41;;;;;;;24.30;12.00;;;;;;;-1.68;64.55;95057.03;5052567;28;20619;-56
2022/03/23 04:58:08;;;;;;;25.85;12.15;;;;;;;-1.69;64.61;95063.53;5051457;28;20055;-48
2022/03/23 05:00:37;;;;;;;24.10;11.93;;;;;;;-1.71;64.63;95063.03;5052148;28;20055;-49
2022/03/23 05:03:04;;;;;;;28.47;12.63;;;;;;;-1.73;64.84;95055.28;5051589;28;20037;-47
2022/03/23 05:05:31;;;;;;;28.85;13.38;;;;;;;-1.77;64.74;95058.88;5050686;28;20055;-49
2022/03/23 05:07:57;;;;;;;28.75;12.85;;;;;;;-1.82;64.84;95060.59;5052516;28;20045;-54
2022/03/23 05:10:25;;;;;;;28.25;12.85;;;;;;;-1.83;65.21;95069.00;5050908;28;20067;-50
2022/03/23 05:12:51;;;;;;;26.15;12.32;;;;;;;-1.83;65.15;95069.00;5052795;28;20040;-55
2022/03/23 05:15:19;;;;;;;26.80;12.47;;;;;;;-1.79;65.05;95067.28;5052363;28;20057;-55
2022/03/23 05:17:45;;;;;;;27.90;12.63;;;;;;;-1.78;65.08;95076.94;5052146;28;20049;-47
2022/03/23 05:20:14;;;;;;;25.88;12.55;;;;;;;-1.81;65.32;95078.34;5052188;28;20044;-51
2022/03/23 05:22:41;;;;;;;31.27;14.40;;;;;;;-1.83;65.46;95069.81;5052148;28;20055;-48
2022/03/23 05:25:08;;;;;;;28.08;12.68;;;;;;;-2.04;66.99;95084.84;5052265;28;20056;-51
2022/03/23 05:27:38;;;;;;;28.33;12.80;;;;;;;-2.02;67.02;95079.97;5051473;28;20041;-51
2022/03/23 05:30:08;;;;;;;25.90;12.65;;;;;;;-2.13;67.56;95079.44;5052438;28;20123;-54
2022/03/23 05:32:35;;;;;;;28.05;13.18;;;;;;;-1.93;66.69;95085.38;5050266;28;20041;-50
2022/03/23 05:35:03;;;;;;;28.77;12.40;;;;;;;-1.86;66.59;95086.53;5052146;28;20094;-53
2022/03/23 05:37:30;;;;;;;29.20;12.27;;;;;;;-1.78;66.49;95087.69;5051097;28;20052;-57
2022/03/23 05:39:57;;;;;;;29.17;12.07;;;;;;;-1.71;65.91;95082.69;5034561;28;20045;-54
2022/03/23 05:42:24;;;;;;;32.83;16.00;;;;;;;-1.72;65.90;95088.38;5050151;28;20157;-56
2022/03/23 05:44:50;;;;;;;30.98;15.25;;;;;;;-1.66;66.02;95090.63;5051068;28;20496;-51
2022/03/23 05:47:17;;;;;;;32.10;14.18;;;;;;;-1.59;65.73;95092.06;5050461;28;20044;-52
2022/03/23 05:49:44;;;;;;;26.27;12.30;;;;;;;-1.59;65.49;95084.78;5050987;28;20126;-54
2022/03/23 05:52:11;;;;;;;27.07;13.07;;;;;;;-1.53;65.73;95088.97;5051808;28;20444;-52
2022/03/23 05:54:38;;;;;;;28.20;12.93;;;;;;;-1.51;65.47;95088.63;5049654;28;20041;-56
2022/03/23 05:57:05;;;;;;;31.92;15.40;;;;;;;-1.50;65.24;95088.31;5051831;28;20053;-53
2022/03/23 05:59:32;;;;;;;33.40;14.15;;;;;;;-1.45;65.02;95088.19;5050358;28;20052;-49
2022/03/23 06:02:00;;;;;;;29.98;13.43;;;;;;;-1.38;64.73;95092.34;5051301;28;20055;-48
2022/03/23 06:04:27;;;;;;;27.77;13.00;;;;;;;-1.41;64.52;95091.03;5050931;28;20418;-49
2022/03/23 06:06:54;;;;;;;27.48;14.02;;;;;;;-1.45;65.11;95092.75;5051524;28;20045;-56
2022/03/23 06:09:21;;;;;;;32.28;13.48;;;;;;;-1.39;65.14;95091.53;5051109;28;20056;-54
2022/03/23 06:11:48;;;;;;;28.35;13.07;;;;;;;-1.38;64.73;95089.66;5051129;28;20043;-55
2022/03/23 06:14:15;;;;;;;25.75;12.65;;;;;;;-1.28;64.83;95089.38;5049730;28;20067;-54
2022/03/23 06:16:41;;;;;;;27.20;12.80;;;;;;;-1.21;64.54;95089.69;5049552;28;20041;-48
2022/03/23 06:19:10;;;;;;;30.67;13.43;;;;;;;-1.14;64.35;95070.41;5051218;28;20387;-50
2022/03/23 06:21:37;;;;;;;40.92;17.58;;;;;;;-1.06;63.95;95085.81;5050406;28;20041;-51
2022/03/23 06:24:04;;;;;;;52.25;21.33;;;;;;;-0.97;64.06;95083.13;5049903;28;20040;-51
2022/03/23 06:26:31;;;;;;;38.78;17.23;;;;;;;-0.89;63.77;95075.03;5050629;28;20049;-55
2022/03/23 06:28:57;;;;;;;33.77;14.00;;;;;;;-1.07;64.04;95076.91;5037994;28;20061;-54
2022/03/23 06:31:24;;;;;;;35.55;16.27;;;;;;;-1.08;64.69;95082.63;5045451;28;20068;-47
2022/03/23 06:33:51;;;;;;;30.88;14.63;;;;;;;-0.96;64.57;95082.81;5051021;28;20037;-49
2022/03/23 06:36:17;;;;;;;32.55;15.20;;;;;;;-0.93;64.66;95081.38;5048816;28;20045;-50
2022/03/23 06:38:44;;;;;;;32.17;15.15;;;;;;;-0.69;64.07;95084.44;5050406;28;20060;-48
2022/03/23 06:41:11;;;;;;;41.03;18.93;;;;;;;-0.46;64.07;95093.22;5050880;28;20047;-50
2022/03/23 06:43:38;;;;;;;60.28;25.83;;;;;;;-0.43;63.75;95089.84;5050123;28;20059;-48
2022/03/23 06:46:05;;;;;;;50.40;22.65;;;;;;;-0.49;64.21;95093.81;5049318;28;20045;-50
2022/03/23 06:48:32;;;;;;;43.70;19.15;;;;;;;-0.43;64.49;95097.16;5052292;28;20041;-49
2022/03/23 06:50:59;;;;;;;36.28;17.90;;;;;;;-0.32;64.38;95090.34;5081755;28;20055;-49
2022/03/23 06:53:26;;;;;;;34.47;16.20;;;;;;;-0.32;64.67;95090.34;5046531;28;20508;-50
2022/03/23 06:55:52;;;;;;;35.38;15.90;;;;;;;-0.16;63.92;95090.69;5050399;28;20055;-51
2022/03/23 06:58:21;;;;;;;33.97;15.82;;;;;;;0.09;63.76;95083.66;5050336;28;20056;-51
2022/03/23 07:00:47;;;;;;;31.15;14.82;;;;;;;0.19;63.82;95087.94;5039694;28;20071;-54
2022/03/23 07:03:14;;;;;;;30.98;14.57;;;;;;;0.32;63.62;95088.84;5030761;28;20048;-49
2022/03/23 07:05:41;;;;;;;30.20;13.50;;;;;;;0.58;62.72;95091.47;5028147;28;20125;-48
2022/03/23 07:10:54;;;;;;;30.60;14.68;;;;;;;1.02;62.58;95099.44;5049378;28;20045;-47
2022/03/23 07:13:20;;;;;;;26.63;13.15;;;;;;;1.31;61.55;95096.72;5050052;28;20041;-52
2022/03/23 07:15:47;;;;;;;28.70;15.00;;;;;;;1.35;61.96;95094.19;5049744;28;20052;-48
2022/03/23 07:18:14;;;;;;;32.40;14.30;;;;;;;1.84;61.19;95099.88;5032935;28;20048;-47
2022/03/23 07:20:41;;;;;;;29.80;14.68;;;;;;;2.24;60.60;95099.38;5048510;28;20121;-50
2022/03/23 07:23:08;;;;;;;30.38;15.40;;;;;;;2.93;58.30;95105.97;5050397;28;20045;-55
2022/03/23 07:25:35;;;;;;;32.08;16.25;;;;;;;6.09;50.45;95092.66;5049470;28;20052;-50
2022/03/23 07:28:02;;;;;;;35.50;16.90;;;;;;;9.17;43.06;95088.25;5050126;28;20045;-51
2022/03/23 07:30:33;;;;;;;37.17;16.73;;;;;;;11.28;38.23;95093.25;5049043;28;20121;-55
2022/03/23 07:33:02;;;;;;;31.05;17.27;;;;;;;13.07;34.75;95088.53;5049968;28;20049;-56
2022/03/23 07:35:28;;;;;;;32.85;16.88;;;;;;;13.18;33.22;95087.28;5037031;28;20054;-53
2022/03/23 07:37:55;;;;;;;29.40;16.55;;;;;;;13.63;33.36;95085.81;5048699;28;20053;-54
2022/03/23 07:40:22;;;;;;;33.10;17.48;;;;;;;15.12;29.57;95087.34;5049654;28;20057;-49
2022/03/23 07:42:49;;;;;;;29.37;16.50;;;;;;;16.64;28.78;95087.19;5049205;28;20789;-52
2022/03/23 07:45:16;;;;;;;27.60;16.65;;;;;;;17.87;26.22;95069.44;5049838;28;20178;-52
2022/03/23 07:47:44;;;;;;;28.98;17.23;;;;;;;17.98;25.99;95079.50;5049246;28;20045;-52
2022/03/23 07:50:10;;;;;;;26.98;16.52;;;;;;;19.35;24.43;95071.72;5048505;28;20059;-51
2022/03/23 07:52:37;;;;;;;22.85;16.33;;;;;;;19.41;24.13;95083.84;5049220;28;20045;-51
2022/03/23 07:55:04;;;;;;;26.87;16.93;;;;;;;19.53;23.96;95076.72;5049879;28;20522;-53
2022/03/23 07:57:31;;;;;;;28.15;17.15;;;;;;;20.24;23.15;95075.66;5048847;28;20049;-53
2022/03/23 07:59:58;;;;;;;28.08;17.70;;;;;;;18.96;24.10;95079.25;5049430;28;20049;-50
2022/03/23 08:02:26;;;;;;;26.98;17.58;;;;;;;21.32;21.95;95078.16;5048775;28;20053;-52
2022/03/23 08:04:54;;;;;;;28.25;17.25;;;;;;;20.86;22.34;95072.28;5049675;28;20047;-52
2022/03/23 08:07:21;;;;;;;26.30;17.13;;;;;;;21.25;21.89;95079.19;5049276;28;20041;-61
2022/03/23 08:09:48;;;;;;;25.77;16.77;;;;;;;22.75;20.43;95071.50;5049184;28;20041;-53
2022/03/23 08:12:19;;;;;;;24.08;17.25;;;;;;;22.90;19.85;95068.88;5049637;28;20129;-54
2022/03/23 08:14:46;;;;;;;22.05;16.75;;;;;;;19.02;23.53;95082.28;5049608;28;20045;-51
2022/03/23 08:17:18;;;;;;;23.60;17.05;;;;;;;20.09;23.01;95081.69;5049975;28;20401;-52
2022/03/23 08:20:32;;;;;;;25.47;16.90;;;;;;;19.67;23.81;95081.06;5049094;28;20110;-53
2022/03/23 08:22:34;;;;;;;23.23;16.17;;;;;;;23.06;20.14;95084.56;5048457;28;20448;-50
2022/03/23 08:25:02;;;;;;;34.25;15.73;;;;;;;22.46;20.23;95077.59;5036451;28;20087;-55
2022/03/23 08:27:28;;;;;;;24.70;15.85;;;;;;;20.65;21.80;95082.22;5045956;28;20040;-57
2022/03/23 08:29:55;;;;;;;23.27;14.68;;;;;;;23.78;18.96;95079.22;5048069;28;20060;-55
2022/03/23 08:32:22;;;;;;;26.50;15.47;;;;;;;23.92;18.28;95075.75;5049356;28;20040;-55
2022/03/23 08:34:50;;;;;;;18.83;13.93;;;;;;;25.76;16.60;95081.06;5048720;28;20387;-54
2022/03/23 08:37:17;;;;;;;18.35;14.00;;;;;;;26.38;15.81;95072.75;5048009;28;20056;-53
2022/03/23 08:39:43;;;;;;;17.70;13.70;;;;;;;26.58;16.07;95072.00;5047307;28;20041;-50
2022/03/23 08:42:10;;;;;;;22.10;13.25;;;;;;;26.18;16.39;95076.31;5049155;28;20052;-54
2022/03/23 08:44:37;;;;;;;18.20;13.97;;;;;;;24.28;17.13;95067.59;5048422;28;20045;-53
2022/03/23 08:47:04;;;;;;;17.45;13.57;;;;;;;24.06;17.07;95074.25;5049445;28;20052;-57
2022/03/23 08:49:31;;;;;;;15.30;12.75;;;;;;;26.06;15.84;95062.09;5048541;28;20498;-54
2022/03/23 08:51:57;;;;;;;18.25;13.23;;;;;;;24.98;15.94;95070.00;5049135;28;20057;-53
2022/03/23 08:54:24;;;;;;;16.48;12.70;;;;;;;26.17;15.12;95066.34;5048463;28;20060;-51
2022/03/23 08:56:51;;;;;;;16.93;13.50;;;;;;;24.79;15.77;95057.38;5047810;28;20041;-55
2022/03/23 08:59:18;;;;;;;20.42;14.02;;;;;;;21.43;19.34;95064.59;5048834;28;20045;-53
2022/03/23 09:01:44;;;;;;;17.80;12.85;;;;;;;24.44;17.60;95055.16;5048536;28;20404;-53
2022/03/23 09:04:11;;;;;;;18.42;13.68;;;;;;;23.17;17.85;95056.09;5049103;28;20049;-55
2022/03/23 09:06:38;;;;;;;20.20;14.25;;;;;;;25.34;16.54;95065.31;5037289;28;20056;-53
2022/03/23 09:09:05;;;;;;;18.00;13.40;;;;;;;25.11;16.00;95056.47;5049114;28;20048;-57
2022/03/23 09:11:32;;;;;;;18.30;13.23;;;;;;;25.55;16.85;95054.13;5048347;28;20063;-53
2022/03/23 09:13:59;;;;;;;16.35;12.93;;;;;;;27.67;14.44;95051.59;5048832;28;20043;-57
2022/03/23 09:16:26;;;;;;;16.95;13.02;;;;;;;27.94;14.33;95054.38;5048224;28;20421;-55
2022/03/23 09:18:53;;;;;;;18.60;13.07;;;;;;;27.39;14.30;95050.59;5048948;28;20041;-53
2022/03/23 09:21:21;;;;;;;18.43;13.13;;;;;;;25.44;16.40;95055.50;5049054;28;20049;-51
2022/03/23 09:23:48;;;;;;;20.65;13.55;;;;;;;25.00;16.54;95055.50;5048446;28;20051;-55
2022/03/23 09:26:15;;;;;;;20.85;14.05;;;;;;;25.29;16.47;95054.75;5039122;28;20079;-56
2022/03/23 09:28:41;;;;;;;16.85;12.82;;;;;;;28.06;14.31;95039.03;5049313;28;20041;-54
2022/03/23 09:31:08;;;;;;;17.90;13.85;;;;;;;28.15;13.98;95044.50;5052570;28;20071;-55
2022/03/23 09:33:35;;;;;;;16.03;13.67;;;;;;;26.43;15.22;95046.72;5050168;28;20049;-52
2022/03/23 09:36:02;;;;;;;18.33;13.60;;;;;;;27.66;14.94;95043.63;5052246;28;20051;-51
2022/03/23 09:38:30;;;;;;;17.35;13.88;;;;;;;25.57;16.28;95049.56;5051320;28;20063;-55
2022/03/23 09:40:57;;;;;;;18.40;14.25;;;;;;;27.58;14.58;95036.91;5052203;28;20121;-50
2022/03/23 09:43:25;;;;;;;16.30;13.52;;;;;;;29.38;13.46;95046.22;5052164;28;20041;-55
2022/03/23 09:45:52;;;;;;;17.77;13.30;;;;;;;29.26;12.85;95039.78;5051224;28;20677;-52
2022/03/23 09:48:21;;;;;;;16.83;12.95;;;;;;;29.57;12.66;95040.03;5052063;28;20090;-52
2022/03/23 09:50:53;;;;;;;15.32;12.80;;;;;;;31.09;11.89;95042.50;5051364;28;20049;-55
2022/03/23 09:53:23;;;;;;;20.25;13.20;;;;;;;28.18;13.22;95037.06;5052132;28;20059;-54
2022/03/23 09:55:51;;;;;;;16.15;13.35;;;;;;;31.33;11.42;95035.34;5050515;28;21527;-52
2022/03/23 09:58:18;;;;;;;15.30;12.80;;;;;;;32.50;10.25;95031.97;5051660;28;20413;-52
2022/03/23 10:00:45;;;;;;;15.57;12.02;;;;;;;33.93;9.45;95035.94;5050890;28;20290;-56
2022/03/23 10:03:16;;;;;;;18.45;14.18;;;;;;;27.97;12.67;95034.38;5038874;28;20045;-52
2022/03/23 10:06:08;;;;;;;18.85;14.40;;;;;;;21.57;18.70;95031.72;5048925;28;20114;-50
2022/03/23 10:08:54;;;;;;;17.75;13.88;;;;;;;20.93;19.09;95033.75;5050795;28;20049;-50
2022/03/23 10:11:39;;;;;;;16.80;13.60;;;;;;;25.86;15.44;95031.88;5051466;28;20059;-57
2022/03/23 10:14:30;;;;;;;17.90;13.25;;;;;;;30.09;11.97;95021.75;5050624;28;20905;-51
2022/03/23 10:17:30;;;;;;;16.33;12.80;;;;;;;31.30;10.94;95011.66;5050757;28;20128;-57
2022/03/23 10:20:00;;;;;;;18.60;12.20;;;;;;;32.01;10.70;95010.06;5050595;28;20797;-53
2022/03/23 10:22:28;;;;;;;14.70;12.02;;;;;;;33.03;9.30;95012.44;5050599;28;20045;-51
2022/03/23 10:24:56;;;;;;;13.13;11.70;;;;;;;31.51;10.27;95011.25;5051320;28;20071;-52
2022/03/23 10:27:23;;;;;;;13.32;10.43;;;;;;;32.03;9.77;95008.22;5049812;28;20053;-53
2022/03/23 10:29:54;;;;;;;14.25;12.45;;;;;;;31.33;9.99;95007.00;5047669;28;21778;-52
2022/03/23 10:32:21;;;;;;;14.65;11.23;;;;;;;32.34;10.18;95008.16;5031392;28;20045;-51
2022/03/23 10:34:51;;;;;;;16.08;10.75;;;;;;;33.02;8.88;95006.00;5028940;28;20465;-53
2022/03/23 10:37:26;;;;;;;15.30;12.43;;;;;;;33.15;8.46;95004.56;5030843;28;20054;-53
2022/03/23 10:39:55;;;;;;;12.32;10.60;;;;;;;32.10;9.86;95003.25;5030424;28;20068;-55
2022/03/23 10:42:26;;;;;;;14.55;11.50;;;;;;;33.63;8.52;94997.84;5031164;28;20067;-55
2022/03/23 10:45:08;;;;;;;13.10;9.73;;;;;;;32.70;8.95;94997.41;5029983;28;20288;-52
2022/03/23 10:47:38;;;;;;;13.60;10.93;;;;;;;32.36;9.17;94992.13;5038633;28;20045;-52
2022/03/23 10:50:13;;;;;;;12.13;10.50;;;;;;;33.29;8.34;94991.91;5051513;28;20041;-54
2022/03/23 10:53:04;;;;;;;13.35;10.18;;;;;;;31.29;9.86;94983.81;5049874;28;20053;-56
2022/03/23 10:55:35;;;;;;;14.93;12.15;;;;;;;30.17;10.17;94985.94;5049367;28;20080;-55
2022/03/23 11:02:04;;;;;;;13.65;11.38;;;;;;;30.63;9.79;94976.00;5048713;28;20106;-53
2022/03/23 11:04:53;;;;;;;13.10;11.17;;;;;;;27.66;11.13;94976.72;5048980;28;20037;-53
2022/03/23 11:07:28;;;;;;;14.15;10.88;;;;;;;30.56;10.16;94970.88;5051132;28;20412;-52
2022/03/23 11:15:47;;;;;;;12.20;10.25;;;;;;;30.81;9.67;94968.94;5040182;28;20066;-49
2022/03/23 11:18:17;;;;;;;15.27;10.83;;;;;;;31.38;8.74;94966.47;5051022;28;20045;-55
2022/03/23 11:20:50;;;;;;;13.23;11.57;;;;;;;31.88;8.48;94955.97;5049868;28;20049;-52
2022/03/23 11:23:26;;;;;;;13.05;11.02;;;;;;;32.49;8.39;94963.00;5049849;28;20101;-52
2022/03/23 11:25:56;;;;;;;16.15;11.20;;;;;;;26.34;11.94;94960.41;5048484;28;20264;-58
2022/03/23 11:28:28;;;;;;;15.57;11.93;;;;;;;24.39;13.42;94966.03;5029792;28;20072;-54
2022/03/23 11:30:57;;;;;;;15.57;12.00;;;;;;;22.89;14.18;94958.91;5030136;28;20402;-53
2022/03/23 11:33:26;;;;;;;16.05;12.10;;;;;;;25.19;12.92;94958.50;5046034;28;20040;-51
2022/03/23 11:35:54;;;;;;;15.27;12.02;;;;;;;24.18;13.58;94962.31;5049330;28;20041;-58
2022/03/23 11:38:28;;;;;;;17.17;12.38;;;;;;;24.41;13.78;94949.50;5049290;28;20133;-55
2022/03/23 11:40:57;;;;;;;16.38;12.05;;;;;;;22.23;15.34;94947.50;5048483;28;20410;-54
2022/03/23 11:43:26;;;;;;;16.50;11.53;;;;;;;20.01;17.18;94945.88;5049193;28;20049;-54
2022/03/23 11:46:13;;;;;;;16.75;12.00;;;;;;;19.26;17.91;94951.94;5049215;28;20079;-55
2022/03/23 11:48:56;;;;;;;15.93;11.60;;;;;;;18.42;19.86;94941.75;5048709;28;20047;-53